Time;durP1;ratioP1;P1;durP2;ratioP2;P2;SDS_P1;SDS_P2;PMS_P1;PMS_P2;Temp;Humidity;BMP_temperature;BMP_pressure;BME280_temperature;BME280_humidity;BME280_pressure;Samples;Min_cycle;Max_cycle;Signal;HPM_P1;HPM_P2
2021/12/02 00:01:18;;;;;;;;;;;;;;;11.81;51.59;99415.84;5056642;28;19942;-82
2021/12/02 00:03:46;;;;;;;;;;;;;;;11.79;51.43;99424.13;5042675;28;19931;-82
2021/12/02 00:06:14;;;;;;;;;;;;;;;11.79;51.56;99423.28;5046882;28;19959;-82
2021/12/02 00:08:41;;;;;;;;;;;;;;;11.78;51.60;99416.97;5058676;28;20017;-83
2021/12/02 00:11:08;;;;;;;;;;;;;;;11.77;51.59;99423.44;5062073;28;19934;-82
2021/12/02 00:16:32;;;;;;;;;;;;;;;11.76;51.53;99421.72;5068038;28;19956;-83
2021/12/02 00:21:47;;;;;;;;;;;;;;;11.74;51.74;99426.44;5061322;28;19921;-83
2021/12/02 00:24:19;;;;;;;;;;;;;;;11.74;51.58;99420.13;5073225;28;19964;-83
2021/12/02 00:26:50;;;;;;;;;;;;;;;11.72;51.58;99420.25;5047646;28;19925;-84
2021/12/02 00:29:19;;;;;;;;;;;;;;;11.71;51.58;99423.97;5057203;28;20631;-83
2021/12/02 00:31:47;;;;;;;;;;;;;;;11.72;51.47;99431.13;5051324;28;19924;-83
2021/12/02 00:34:14;;;;;;;;;;;;;;;11.70;51.60;99435.00;5066502;28;19924;-83
2021/12/02 00:36:41;;;;;;;;;;;;;;;11.70;51.51;99437.72;5037736;28;19921;-84
2021/12/02 00:39:09;;;;;;;;;;;;;;;11.69;51.77;99438.75;5067020;28;20433;-85
2021/12/02 00:41:36;;;;;;;;;;;;;;;11.69;51.43;99438.75;5053242;28;20027;-83
2021/12/02 00:44:04;;;;;;;;;;;;;;;11.68;51.50;99437.88;5051422;28;19924;-83
2021/12/02 00:46:32;;;;;;;;;;;;;;;11.67;51.64;99436.16;5059581;28;19943;-82
2021/12/02 00:49:03;;;;;;;;;;;;;;;11.67;51.63;99438.88;5053792;28;20283;-84
2021/12/02 00:51:31;;;;;;;;;;;;;;;11.66;51.67;99433.56;5048155;28;19963;-83
2021/12/02 00:54:05;;;;;;;;;;;;;;;11.65;51.63;99443.59;5069255;28;19928;-83
2021/12/02 00:56:32;;;;;;;;;;;;;;;11.65;51.76;99443.59;5053450;28;19928;-83
2021/12/02 00:58:59;;;;;;;;;;;;;;;11.65;51.67;99446.31;5054874;28;19921;-83
2021/12/02 01:01:26;;;;;;;;;;;;;;;11.65;51.66;99442.72;5060100;28;19924;-83
2021/12/02 01:03:55;;;;;;;;;;;;;;;11.65;51.80;99440.88;5069431;28;19925;-82
2021/12/02 01:06:22;;;;;;;;;;;;;;;11.65;51.69;99446.31;5064424;28;19920;-82
2021/12/02 01:08:49;;;;;;;;;;;;;;;11.64;51.67;99441.88;5069620;28;19928;-82
2021/12/02 01:11:17;;;;;;;;;;;;;;;11.64;51.80;99439.16;5045686;28;19924;-82
2021/12/02 01:13:45;;;;;;;;;;;;;;;11.64;51.61;99441.88;5043306;28;20932;-81
2021/12/02 01:16:12;;;;;;;;;;;;;;;11.63;51.84;99448.31;5051158;28;19924;-83
2021/12/02 01:18:39;;;;;;;;;;;;;;;11.64;51.57;99449.16;5039317;28;19927;-83
2021/12/02 01:21:06;;;;;;;;;;;;;;;11.63;51.78;99451.03;5053076;28;19928;-81
2021/12/02 01:23:33;;;;;;;;;;;;;;;11.63;51.59;99452.88;5048413;28;20260;-82
2021/12/02 01:26:05;;;;;;;;;;;;;;;11.61;51.67;99447.59;5066217;28;20014;-83
2021/12/02 01:28:31;;;;;;;;;;;;;;;11.61;51.54;99455.72;5049053;28;19920;-83
2021/12/02 01:30:58;;;;;;;;;;;;;;;11.62;51.68;99467.47;5061119;28;20383;-82
2021/12/02 01:33:26;;;;;;;;;;;;;;;11.62;51.79;99467.47;5060125;28;19920;-83
2021/12/02 01:35:57;;;;;;;;;;;;;;;11.62;51.84;99465.63;5060015;28;19969;-83
2021/12/02 01:38:25;;;;;;;;;;;;;;;11.64;51.91;99465.47;5048677;28;19921;-83
2021/12/02 01:40:52;;;;;;;;;;;;;;;11.64;51.89;99462.75;5055860;28;19966;-83
2021/12/02 01:43:19;;;;;;;;;;;;;;;11.64;51.92;99462.75;5079085;28;19924;-83
2021/12/02 01:45:46;;;;;;;;;;;;;;;11.66;51.92;99471.63;5068541;28;19920;-83
2021/12/02 01:48:21;;;;;;;;;;;;;;;11.66;51.66;99468.91;5059294;28;19959;-83
2021/12/02 01:51:01;;;;;;;;;;;;;;;11.66;51.79;99455.31;5054965;28;20053;-83
2021/12/02 01:53:30;;;;;;;;;;;;;;;11.66;51.86;99449.88;5036326;28;19960;-82
2021/12/02 01:56:09;;;;;;;;;;;;;;;11.66;51.53;99452.59;5049319;28;19963;-82
2021/12/02 01:58:55;;;;;;;;;;;;;;;11.65;51.70;99451.75;5071672;28;20030;-83
2021/12/02 02:01:26;;;;;;;;;;;;;;;11.65;51.53;99459.03;5052106;28;19932;-82
2021/12/02 02:03:55;;;;;;;;;;;;;;;11.64;51.83;99455.47;5042993;28;20366;-82
2021/12/02 02:06:27;;;;;;;;;;;;;;;11.63;51.57;99459.19;5035223;28;19982;-82
2021/12/02 02:08:55;;;;;;;;;;;;;;;11.62;51.83;99460.19;5065172;28;20007;-83
2021/12/02 02:11:24;;;;;;;;;;;;;;;11.61;51.88;99463.88;5043238;28;19920;-83
2021/12/02 02:13:50;;;;;;;;;;;;;;;11.63;51.67;99459.19;5063882;28;19921;-82
2021/12/02 02:16:17;;;;;;;;;;;;;;;11.64;51.62;99454.59;5042388;28;20367;-82
2021/12/02 02:18:43;;;;;;;;;;;;;;;11.63;51.82;99464.63;5038549;28;19928;-82
2021/12/02 02:21:14;;;;;;;;;;;;;;;11.63;51.67;99458.31;5041410;28;20015;-83
2021/12/02 02:23:52;;;;;;;;;;;;;;;11.62;51.72;99453.88;5038841;28;20364;-82
2021/12/02 02:26:27;;;;;;;;;;;;;;;11.61;51.57;99455.72;5053702;28;20014;-82
2021/12/02 02:28:57;;;;;;;;;;;;;;;11.60;51.74;99450.47;5060224;28;19979;-82
2021/12/02 02:31:24;;;;;;;;;;;;;;;11.58;51.43;99453.31;5045461;28;19960;-82
2021/12/02 02:33:53;;;;;;;;;;;;;;;11.57;51.68;99446.16;5047867;28;19928;-82
2021/12/02 02:36:21;;;;;;;;;;;;;;;11.56;51.51;99449.88;5043765;28;19956;-82
2021/12/02 02:38:55;;;;;;;;;;;;;;;11.57;51.69;99445.31;5050655;28;20011;-83
2021/12/02 02:41:38;;;;;;;;;;;;;;;11.55;51.59;99448.16;5052626;28;19975;-83
2021/12/02 02:44:04;;;;;;;;;;;;;;;11.54;51.60;99445.59;5072012;28;20351;-82
2021/12/02 02:46:36;;;;;;;;;;;;;;;11.53;51.65;99441.19;5052138;28;20028;-83
2021/12/02 02:49:04;;;;;;;;;;;;;;;11.53;51.69;99436.56;5057513;28;20000;-82
2021/12/02 02:51:32;;;;;;;;;;;;;;;11.51;51.50;99430.44;5070880;28;20406;-83
2021/12/02 02:54:04;;;;;;;;;;;;;;;11.52;51.65;99436.75;5052925;28;20015;-83
2021/12/02 02:56:31;;;;;;;;;;;;;;;11.51;51.47;99446.75;5071176;28;19955;-83
2021/12/02 03:02:23;;;;;;;;;;;;;;;11.49;51.74;99443.31;5070743;28;19974;-82
2021/12/02 03:09:39;;;;;;;;;;;;;;;11.47;51.50;99444.44;5051076;28;19999;-83
2021/12/02 03:12:15;;;;;;;;;;;;;;;11.46;51.62;99454.44;5061964;28;19920;-83
2021/12/02 03:17:08;;;;;;;;;;;;;;;11.45;51.48;99450.00;5058073;28;19921;-83
2021/12/02 03:19:39;;;;;;;;;;;;;;;11.45;51.54;99456.31;5071701;28;19920;-83
2021/12/02 03:22:05;;;;;;;;;;;;;;;11.44;51.59;99449.19;5043627;28;19927;-83
2021/12/02 03:24:32;;;;;;;;;;;;;;;11.44;51.49;99456.47;5053646;28;20383;-82
2021/12/02 03:26:58;;;;;;;;;;;;;;;11.43;51.54;99452.91;5053916;28;20417;-83
2021/12/02 03:29:25;;;;;;;;;;;;;;;11.42;51.39;99453.03;5053381;28;19943;-82
2021/12/02 03:31:51;;;;;;;;;;;;;;;11.42;51.63;99453.03;5057279;28;20345;-82
2021/12/02 03:34:19;;;;;;;;;;;;;;;11.40;51.45;99453.16;5070618;28;20007;-82
2021/12/02 03:36:45;;;;;;;;;;;;;;;11.39;51.37;99459.59;5053936;28;19921;-82
2021/12/02 03:39:12;;;;;;;;;;;;;;;11.37;51.30;99458.88;5035742;28;20016;-81
2021/12/02 03:41:39;;;;;;;;;;;;;;;11.35;51.15;99454.59;5066749;28;19921;-81
2021/12/02 03:44:06;;;;;;;;;;;;;;;11.33;51.09;99462.91;5063921;28;20385;-82
2021/12/02 03:46:33;;;;;;;;;;;;;;;11.33;51.19;99472.91;5057905;28;20279;-82
2021/12/02 03:49:00;;;;;;;;;;;;;;;11.31;51.27;99464.88;5070540;28;19928;-82
2021/12/02 03:51:27;;;;;;;;;;;;;;;11.31;51.38;99464.03;5069119;28;20405;-81
2021/12/02 03:53:54;;;;;;;;;;;;;;;11.29;51.19;99466.88;5060949;28;19968;-82
2021/12/02 03:56:20;;;;;;;;;;;;;;;11.26;51.29;99467.19;5041550;28;19928;-81
2021/12/02 03:58:47;;;;;;;;;;;;;;;11.26;51.04;99467.19;5048368;28;19920;-81
2021/12/02 04:01:14;;;;;;;;;;;;;;;11.23;51.31;99464.72;5055408;28;19954;-81
2021/12/02 04:03:41;;;;;;;;;;;;;;;11.23;51.06;99456.59;5056027;28;19970;-82
2021/12/02 04:06:08;;;;;;;;;;;;;;;11.22;51.11;99449.44;5056305;28;19969;-81
2021/12/02 04:16:37;;;;;;;;;;;;;;;11.20;51.07;99466.88;5058498;28;19920;-81
2021/12/02 04:19:05;;;;;;;;;;;;;;;11.19;51.03;99468.75;5064286;28;19924;-82
2021/12/02 04:21:35;;;;;;;;;;;;;;;11.18;51.15;99463.44;5039930;28;19927;-81
2021/12/02 04:24:02;;;;;;;;;;;;;;;11.17;51.15;99468.03;5036194;28;20379;-81
2021/12/02 04:26:28;;;;;;;;;;;;;;;11.16;51.14;99466.28;5070021;28;19963;-82
2021/12/02 04:28:55;;;;;;;;;;;;;;;11.16;51.29;99460.00;5062382;28;19986;-81
2021/12/02 04:31:21;;;;;;;;;;;;;;;11.17;51.29;99459.88;5073826;28;19921;-83
2021/12/02 04:33:48;;;;;;;;;;;;;;;11.16;51.26;99471.72;5074045;28;19920;-83
2021/12/02 04:36:14;;;;;;;;;;;;;;;11.16;51.40;99469.00;5064864;28;19964;-82
2021/12/02 04:38:41;;;;;;;;;;;;;;;11.16;51.21;99470.88;5038097;28;19986;-82
2021/12/02 04:41:07;;;;;;;;;;;;;;;11.14;51.26;99465.56;5047756;28;19921;-82
2021/12/02 04:43:34;;;;;;;;;;;;;;;11.14;51.12;99475.56;5047709;28;19925;-84
2021/12/02 04:46:00;;;;;;;;;;;;;;;11.13;51.07;99484.72;5056618;28;19932;-83
2021/12/02 04:48:27;;;;;;;;;;;;;;;11.13;51.14;99479.28;5066821;28;20027;-82
2021/12/02 04:50:53;;;;;;;;;;;;;;;11.11;51.04;99481.31;5048149;28;19960;-82
2021/12/02 04:53:20;;;;;;;;;;;;;;;11.10;51.06;99475.00;5054794;28;20135;-82
2021/12/02 04:55:47;;;;;;;;;;;;;;;11.09;50.94;99486.88;5054159;28;19927;-83
2021/12/02 04:58:14;;;;;;;;;;;;;;;11.08;50.94;99498.72;5067703;28;19971;-81
2021/12/02 05:00:40;;;;;;;;;;;;;;;11.07;51.09;99495.16;5071027;28;20022;-81
2021/12/02 05:03:07;;;;;;;;;;;;;;;11.06;50.80;99493.44;5056011;28;19921;-81
2021/12/02 05:05:34;;;;;;;;;;;;;;;11.03;50.75;99491.00;5045342;28;20007;-81
2021/12/02 05:08:03;;;;;;;;;;;;;;;11.01;50.68;99486.72;5059150;28;19968;-81
2021/12/02 05:10:29;;;;;;;;;;;;;;;10.96;50.68;99495.25;5066936;28;19967;-81
2021/12/02 05:12:56;;;;;;;;;;;;;;;10.93;50.82;99500.97;5067397;28;20003;-81
2021/12/02 05:15:22;;;;;;;;;;;;;;;10.90;50.63;99494.94;5067260;28;19921;-81
2021/12/02 05:17:49;;;;;;;;;;;;;;;10.89;50.58;99496.81;5072201;28;20415;-81
2021/12/02 05:20:15;;;;;;;;;;;;;;;10.88;50.63;99497.78;5072808;28;20272;-82
2021/12/02 05:22:42;;;;;;;;;;;;;;;10.87;50.83;99489.81;5058550;28;20015;-81
2021/12/02 05:25:09;;;;;;;;;;;;;;;10.86;51.01;99494.38;5062677;28;19924;-82
2021/12/02 05:27:36;;;;;;;;;;;;;;;10.86;50.91;99490.81;5064101;28;20413;-82
2021/12/02 05:30:03;;;;;;;;;;;;;;;10.86;50.94;99491.66;5066767;28;20371;-83
2021/12/02 05:32:30;;;;;;;;;;;;;;;10.86;50.87;99477.22;5050160;28;19921;-83
2021/12/02 05:34:58;;;;;;;;;;;;;;;10.86;50.74;99480.81;5049023;28;20553;-83
2021/12/02 05:37:25;;;;;;;;;;;;;;;10.86;50.95;99478.09;5068299;28;19970;-84
2021/12/02 05:39:51;;;;;;;;;;;;;;;10.86;50.94;99479.94;5058214;28;19924;-82
2021/12/02 05:42:18;;;;;;;;;;;;;;;10.86;50.85;99478.09;5057434;28;19974;-84
2021/12/02 05:44:48;;;;;;;;;;;;;;;10.86;50.88;99477.22;5053468;28;19975;-83
2021/12/02 05:47:15;;;;;;;;;;;;;;;10.86;50.79;99482.66;5043509;28;19921;-83
2021/12/02 05:49:41;;;;;;;;;;;;;;;10.85;50.93;99484.53;5059529;28;20007;-83
2021/12/02 05:52:13;;;;;;;;;;;;;;;10.85;50.90;99487.22;5067555;28;19987;-82
2021/12/02 05:54:40;;;;;;;;;;;;;;;10.84;50.85;99484.66;5050328;28;20408;-83
2021/12/02 05:57:06;;;;;;;;;;;;;;;10.84;50.85;99481.94;5045121;28;19967;-83
2021/12/02 05:59:32;;;;;;;;;;;;;;;10.83;50.99;99483.78;5062795;28;20635;-82
2021/12/02 06:01:59;;;;;;;;;;;;;;;10.83;50.92;99486.50;5050578;28;19920;-82
2021/12/02 06:04:26;;;;;;;;;;;;;;;10.83;50.91;99485.63;5052802;28;20466;-83
2021/12/02 06:06:53;;;;;;;;;;;;;;;10.83;50.86;99493.78;5066732;28;20447;-83
2021/12/02 06:09:19;;;;;;;;;;;;;;;10.83;50.95;99499.22;5066759;28;19921;-82
2021/12/02 06:11:49;;;;;;;;;;;;;;;10.83;50.93;99502.78;5052902;28;19920;-82
2021/12/02 06:14:16;;;;;;;;;;;;;;;10.82;51.21;99505.63;5066492;28;19924;-82
2021/12/02 06:16:42;;;;;;;;;;;;;;;10.83;51.17;99510.06;5061727;28;19936;-82
2021/12/02 06:19:09;;;;;;;;;;;;;;;10.81;51.02;99512.91;5038039;28;20011;-83
2021/12/02 06:21:36;;;;;;;;;;;;;;;10.81;50.89;99507.50;5047511;28;19963;-83
2021/12/02 06:24:05;;;;;;;;;;;;;;;10.81;51.07;99504.78;5059380;28;19928;-81
2021/12/02 06:26:32;;;;;;;;;;;;;;;10.81;50.96;99507.50;5060621;28;19928;-79
2021/12/02 06:28:59;;;;;;;;;;;;;;;10.80;51.04;99516.63;5052290;28;19924;-79
2021/12/02 06:31:25;;;;;;;;;;;;;;;10.81;50.83;99520.22;5050616;28;20556;-78
2021/12/02 06:33:52;;;;;;;;;;;;;;;10.79;50.93;99528.47;5053940;28;20011;-79
2021/12/02 06:36:18;;;;;;;;;;;;;;;10.79;50.96;99524.94;5069799;28;19981;-79
2021/12/02 06:38:57;;;;;;;;;;;;;;;10.79;50.98;99522.22;5068374;28;19926;-79
2021/12/02 06:41:23;;;;;;;;;;;;;;;10.79;51.09;99523.06;5070589;28;19990;-79
2021/12/02 06:43:50;;;;;;;;;;;;;;;10.79;51.11;99530.38;5062053;28;19963;-79
2021/12/02 06:46:16;;;;;;;;;;;;;;;10.77;50.83;99525.06;5067309;28;19920;-81
2021/12/02 06:48:43;;;;;;;;;;;;;;;10.75;50.90;99537.91;5068827;28;19924;-81
2021/12/02 06:51:12;;;;;;;;;;;;;;;10.74;50.83;99547.03;5035565;28;19962;-81
2021/12/02 06:53:41;;;;;;;;;;;;;;;10.73;50.77;99545.31;5067690;28;20429;-79
2021/12/02 06:56:07;;;;;;;;;;;;;;;10.71;50.72;99543.75;5061133;28;19921;-79
2021/12/02 06:58:34;;;;;;;;;;;;;;;10.70;50.90;99552.91;5055957;28;19971;-79
2021/12/02 07:01:00;;;;;;;;;;;;;;;10.68;50.91;99545.75;5053347;28;19925;-79
2021/12/02 07:03:27;;;;;;;;;;;;;;;10.67;50.89;99552.16;5052032;28;19989;-79
2021/12/02 07:05:54;;;;;;;;;;;;;;;10.67;50.77;99551.31;5054743;28;19925;-79
2021/12/02 07:08:21;;;;;;;;;;;;;;;10.65;51.03;99551.44;5040495;28;19971;-82
2021/12/02 07:10:47;;;;;;;;;;;;;;;10.66;50.78;99552.28;5060790;28;19920;-81
2021/12/02 07:13:14;;;;;;;;;;;;;;;10.64;50.73;99559.69;5068084;28;19986;-80
2021/12/02 07:15:44;;;;;;;;;;;;;;;10.61;50.67;99562.69;5072602;28;20383;-81
2021/12/02 07:18:15;;;;;;;;;;;;;;;10.59;50.77;99567.41;5071111;28;19970;-81
2021/12/02 07:20:43;;;;;;;;;;;;;;;10.57;50.65;99559.38;5069797;28;19982;-80
2021/12/02 07:23:09;;;;;;;;;;;;;;;10.55;50.67;99572.22;5071740;28;19948;-80
2021/12/02 07:25:39;;;;;;;;;;;;;;;10.55;50.53;99583.06;5056025;28;19921;-79
2021/12/02 07:28:05;;;;;;;;;;;;;;;10.53;50.63;99576.09;5067399;28;20034;-78
2021/12/02 07:30:32;;;;;;;;;;;;;;;10.52;50.69;99586.06;5060538;28;19964;-79
2021/12/02 07:33:00;;;;;;;;;;;;;;;10.50;50.73;99588.06;5071127;28;19926;-79
2021/12/02 07:35:26;;;;;;;;;;;;;;;10.49;50.90;99588.19;5055885;28;19921;-78
2021/12/02 07:37:54;;;;;;;;;;;;;;;10.49;50.56;99588.19;5054772;28;19920;-79
2021/12/02 07:40:23;;;;;;;;;;;;;;;10.49;50.65;99596.31;5073336;28;19924;-79
2021/12/02 07:42:52;;;;;;;;;;;;;;;10.49;50.93;99596.31;5065399;28;19920;-79
2021/12/02 07:45:19;;;;;;;;;;;;;;;10.46;50.68;99604.75;5047674;28;20350;-79
2021/12/02 07:47:45;;;;;;;;;;;;;;;10.45;50.75;99601.16;5069862;28;19967;-82
2021/12/02 07:50:13;;;;;;;;;;;;;;;10.44;50.66;99614.88;5052756;28;20033;-82
2021/12/02 07:52:44;;;;;;;;;;;;;;;10.43;50.63;99605.00;5052735;28;20345;-82
2021/12/02 07:55:11;;;;;;;;;;;;;;;10.41;50.73;99606.97;5067222;28;20328;-81
2021/12/02 07:57:40;;;;;;;;;;;;;;;10.39;50.62;99614.38;5071635;28;19927;-82
2021/12/02 08:00:07;;;;;;;;;;;;;;;10.37;50.66;99619.97;5046603;28;20387;-83
2021/12/02 08:02:35;;;;;;;;;;;;;;;10.38;50.84;99626.25;5064122;28;20011;-83
2021/12/02 08:05:03;;;;;;;;;;;;;;;10.36;50.91;99620.09;5069017;28;19994;-82
2021/12/02 08:07:29;;;;;;;;;;;;;;;10.36;50.75;99625.50;5058820;28;19943;-82
2021/12/02 08:09:56;;;;;;;;;;;;;;;10.36;50.52;99634.53;5054539;28;19959;-82
2021/12/02 08:12:23;;;;;;;;;;;;;;;10.35;50.60;99629.22;5050453;28;19952;-81
2021/12/02 08:14:50;;;;;;;;;;;;;;;10.34;50.63;99630.19;5064747;28;20652;-81
2021/12/02 08:17:17;;;;;;;;;;;;;;;10.32;50.75;99637.59;5058073;28;19966;-82
2021/12/02 08:19:44;;;;;;;;;;;;;;;10.32;50.60;99641.19;5070749;28;19921;-82
2021/12/02 08:22:10;;;;;;;;;;;;;;;10.33;50.77;99652.91;5070493;28;19968;-83
2021/12/02 08:24:37;;;;;;;;;;;;;;;10.32;50.66;99656.59;5066263;28;19970;-81
2021/12/02 08:27:03;;;;;;;;;;;;;;;10.30;50.42;99654.00;5070477;28;20148;-82
2021/12/02 08:29:32;;;;;;;;;;;;;;;10.30;50.46;99654.88;5070245;28;20195;-82
2021/12/02 08:32:00;;;;;;;;;;;;;;;10.29;50.65;99666.72;5051720;28;19963;-82
2021/12/02 08:34:27;;;;;;;;;;;;;;;10.28;50.75;99669.56;5069137;28;19978;-82
2021/12/02 08:36:55;;;;;;;;;;;;;;;10.27;50.86;99671.41;5052874;28;19924;-83
2021/12/02 08:39:25;;;;;;;;;;;;;;;10.26;50.75;99672.41;5051016;28;19928;-82
2021/12/02 08:41:54;;;;;;;;;;;;;;;10.27;50.85;99665.13;5056638;28;20413;-83
2021/12/02 08:44:22;;;;;;;;;;;;;;;10.26;50.59;99669.69;5066408;28;19974;-82
2021/12/02 08:46:50;;;;;;;;;;;;;;;10.27;50.72;99681.41;5053084;28;19966;-83
2021/12/02 08:49:17;;;;;;;;;;;;;;;10.27;50.48;99678.69;5048652;28;19973;-82
2021/12/02 08:51:44;;;;;;;;;;;;;;;10.27;50.72;99690.41;5039570;28;20024;-82
2021/12/02 08:54:13;;;;;;;;;;;;;;;10.27;50.74;99684.13;5060652;28;19920;-82
2021/12/02 08:56:40;;;;;;;;;;;;;;;10.27;50.71;99693.13;5053423;28;20083;-82
2021/12/02 08:59:06;;;;;;;;;;;;;;;10.29;50.78;99701.97;5052078;28;20287;-82
2021/12/02 09:01:34;;;;;;;;;;;;;;;10.30;50.61;99700.13;5069653;28;19961;-82
2021/12/02 09:04:04;;;;;;;;;;;;;;;10.29;50.53;99699.25;5059180;28;19920;-83
2021/12/02 09:06:31;;;;;;;;;;;;;;;10.28;50.50;99705.69;5052082;28;19927;-82
2021/12/02 09:08:58;;;;;;;;;;;;;;;10.30;50.78;99710.97;5068349;28;20021;-82
2021/12/02 09:11:30;;;;;;;;;;;;;;;10.29;50.67;99703.84;5052440;28;19932;-82
2021/12/02 09:14:01;;;;;;;;;;;;;;;10.28;50.58;99724.69;5053977;28;20347;-83
2021/12/02 09:16:29;;;;;;;;;;;;;;;10.28;50.43;99729.25;5070798;28;19989;-82
2021/12/02 09:18:56;;;;;;;;;;;;;;;10.26;50.48;99732.09;5038347;28;19921;-82
2021/12/02 09:21:24;;;;;;;;;;;;;;;10.24;50.58;99735.91;5042992;28;19936;-82
2021/12/02 09:23:51;;;;;;;;;;;;;;;10.24;50.46;99735.91;5064778;28;19955;-82
2021/12/02 09:26:17;;;;;;;;;;;;;;;10.23;50.48;99743.19;5043763;28;19921;-82
2021/12/02 09:28:51;;;;;;;;;;;;;;;10.22;50.46;99735.16;5064875;28;19920;-82
2021/12/02 09:31:20;;;;;;;;;;;;;;;10.20;50.38;99740.75;5052582;28;19927;-82
2021/12/02 09:33:47;;;;;;;;;;;;;;;10.19;50.43;99749.88;5061360;28;19920;-82
2021/12/02 09:36:13;;;;;;;;;;;;;;;10.18;50.62;99736.44;5052240;28;19990;-82
2021/12/02 09:38:40;;;;;;;;;;;;;;;10.18;50.71;99741.84;5040070;28;20375;-83
2021/12/02 09:41:06;;;;;;;;;;;;;;;10.16;50.36;99747.38;5057914;28;19921;-83
2021/12/02 09:43:33;;;;;;;;;;;;;;;10.16;50.42;99760.06;5046572;28;19935;-82
2021/12/02 09:45:59;;;;;;;;;;;;;;;10.16;50.58;99766.34;5063174;28;20000;-82
2021/12/02 09:48:27;;;;;;;;;;;;;;;10.17;50.51;99759.97;5062958;28;19932;-82
2021/12/02 09:51:02;;;;;;;;;;;;;;;10.17;50.59;99759.97;5063466;28;19948;-82
2021/12/02 09:53:55;;;;;;;;;;;;;;;10.17;50.45;99757.25;5040208;28;20022;-83
2021/12/02 09:56:26;;;;;;;;;;;;;;;10.17;50.53;99761.78;5052520;28;19929;-81
2021/12/02 09:58:56;;;;;;;;;;;;;;;10.18;50.66;99755.41;5050957;28;20401;-81
2021/12/02 10:01:30;;;;;;;;;;;;;;;10.16;50.75;99763.63;5050969;28;19920;-81
2021/12/02 10:04:02;;;;;;;;;;;;;;;10.18;50.67;99758.13;5052975;28;20385;-81
2021/12/02 10:06:31;;;;;;;;;;;;;;;10.19;50.64;99762.56;5052127;28;20375;-81
2021/12/02 10:09:10;;;;;;;;;;;;;;;10.19;50.65;99763.44;5068452;28;19951;-81
2021/12/02 10:11:48;;;;;;;;;;;;;;;10.20;50.99;99767.00;5050000;28;19967;-80
2021/12/02 10:14:24;;;;;;;;;;;;;;;10.21;50.84;99761.44;5050591;28;19926;-81
2021/12/02 10:17:04;;;;;;;;;;;;;;;10.22;50.81;99765.88;5068661;28;20007;-81
2021/12/02 10:19:31;;;;;;;;;;;;;;;10.24;50.75;99766.63;5067073;28;19926;-80
2021/12/02 10:22:06;;;;;;;;;;;;;;;10.28;50.90;99769.94;5067446;28;19974;-81
2021/12/02 10:24:39;;;;;;;;;;;;;;;10.31;50.78;99766.97;5065802;28;20412;-81
2021/12/02 10:27:06;;;;;;;;;;;;;;;10.34;50.90;99768.56;5053797;28;19974;-81
2021/12/02 10:29:47;;;;;;;;;;;;;;;10.38;50.99;99761.91;5040358;28;19928;-82
2021/12/02 10:32:21;;;;;;;;;;;;;;;10.40;50.97;99768.91;5049880;28;19947;-81
2021/12/02 10:34:53;;;;;;;;;;;;;;;10.43;50.89;99773.22;5049371;28;19963;-81
2021/12/02 10:37:21;;;;;;;;;;;;;;;10.46;50.84;99770.28;5050634;28;19924;-81
2021/12/02 10:40:00;;;;;;;;;;;;;;;10.47;50.66;99780.09;5051726;28;20428;-81
2021/12/02 10:42:27;;;;;;;;;;;;;;;10.48;50.78;99777.28;5047903;28;19921;-81
2021/12/02 10:44:57;;;;;;;;;;;;;;;10.50;50.92;99780.72;5069283;28;19959;-81
2021/12/02 10:47:24;;;;;;;;;;;;;;;10.52;50.61;99778.75;5065006;28;19920;-81
2021/12/02 10:49:52;;;;;;;;;;;;;;;10.53;50.84;99777.78;5069063;28;19920;-81
2021/12/02 10:52:23;;;;;;;;;;;;;;;10.54;50.61;99781.34;5056067;28;19963;-81
2021/12/02 10:54:57;;;;;;;;;;;;;;;10.54;50.84;99773.19;5060389;28;20013;-81
2021/12/02 10:57:25;;;;;;;;;;;;;;;10.54;50.60;99779.47;5056991;28;19931;-80
2021/12/02 10:59:53;;;;;;;;;;;;;;;10.54;50.43;99771.31;5068829;28;20478;-81
2021/12/02 11:02:30;;;;;;;;;;;;;;;10.53;50.46;99782.34;5068595;28;19924;-80
2021/12/02 11:05:00;;;;;;;;;;;;;;;10.53;50.58;99776.91;5070349;28;19932;-81
2021/12/02 11:07:28;;;;;;;;;;;;;;;10.53;50.54;99785.03;5054333;28;19998;-80
2021/12/02 11:09:56;;;;;;;;;;;;;;;10.51;50.32;99773.44;5060193;28;19952;-80
2021/12/02 11:12:26;;;;;;;;;;;;;;;10.50;50.49;99775.31;5063720;28;19924;-81
2021/12/02 11:14:59;;;;;;;;;;;;;;;10.51;50.39;99773.44;5065352;28;19924;-80
2021/12/02 11:17:33;;;;;;;;;;;;;;;10.50;50.56;99774.44;5052654;28;20020;-81
2021/12/02 11:20:03;;;;;;;;;;;;;;;10.49;50.54;99767.28;5054362;28;19955;-80
2021/12/02 11:22:30;;;;;;;;;;;;;;;10.48;50.34;99771.84;5058943;28;19921;-81
2021/12/02 11:24:58;;;;;;;;;;;;;;;10.48;50.34;99774.56;5055039;28;19920;-80
2021/12/02 11:27:24;;;;;;;;;;;;;;;10.48;50.17;99774.56;5053988;28;19928;-80
2021/12/02 11:29:52;;;;;;;;;;;;;;;10.48;50.28;99776.41;5054790;28;19920;-80
2021/12/02 11:32:39;;;;;;;;;;;;;;;10.49;50.48;99781.72;5044244;28;20246;-80
2021/12/02 11:35:14;;;;;;;;;;;;;;;10.50;50.41;99788.00;5044475;28;20020;-80
2021/12/02 11:37:43;;;;;;;;;;;;;;;10.50;50.32;99780.72;5053812;28;19921;-80
2021/12/02 11:40:12;;;;;;;;;;;;;;;10.52;50.55;99780.59;5072530;28;20322;-80
2021/12/02 11:42:39;;;;;;;;;;;;;;;10.52;50.23;99784.19;5071112;28;19927;-80
2021/12/02 11:45:08;;;;;;;;;;;;;;;10.53;50.36;99782.34;5076347;28;19924;-79
2021/12/02 11:47:35;;;;;;;;;;;;;;;10.54;50.18;99786.78;5063427;28;19924;-80
2021/12/02 11:50:02;;;;;;;;;;;;;;;10.54;50.24;99786.78;5061206;28;19971;-80
2021/12/02 11:52:29;;;;;;;;;;;;;;;10.55;50.09;99791.19;5049919;28;19924;-80
2021/12/02 11:54:58;;;;;;;;;;;;;;;10.55;50.36;99788.47;5052518;28;19920;-80
2021/12/02 11:57:25;;;;;;;;;;;;;;;10.55;50.11;99792.03;5051573;28;20456;-80
2021/12/02 11:59:52;;;;;;;;;;;;;;;10.57;50.33;99789.22;5052103;28;19921;-80
2021/12/02 12:02:18;;;;;;;;;;;;;;;10.58;50.28;99796.38;5061336;28;19929;-80
2021/12/02 12:04:53;;;;;;;;;;;;;;;10.57;50.19;99800.06;5052217;28;20393;-80
2021/12/02 12:07:21;;;;;;;;;;;;;;;10.58;50.01;99797.22;5065586;28;20003;-80
2021/12/02 12:09:47;;;;;;;;;;;;;;;10.57;50.09;99798.22;5051976;28;19921;-80
2021/12/02 12:12:14;;;;;;;;;;;;;;;10.59;50.18;99792.66;5051637;28;19931;-80
2021/12/02 12:14:41;;;;;;;;;;;;;;;10.59;50.35;99795.38;5064173;28;19921;-80
2021/12/02 12:17:11;;;;;;;;;;;;;;;10.58;50.26;99799.94;5063392;28;20378;-80
2021/12/02 12:19:40;;;;;;;;;;;;;;;10.57;49.98;99805.50;5053911;28;20379;-80
2021/12/02 12:22:10;;;;;;;;;;;;;;;10.57;50.16;99813.63;5068872;28;19921;-79
2021/12/02 12:24:50;;;;;;;;;;;;;;;10.56;50.16;99820.91;5049382;28;20132;-80
2021/12/02 12:27:19;;;;;;;;;;;;;;;10.55;50.06;99819.19;5070492;28;19920;-80
2021/12/02 12:30:19;;;;;;;;;;;;;;;10.55;50.18;99823.75;5051122;28;19921;-80
2021/12/02 12:32:58;;;;;;;;;;;;;;;10.54;50.17;99828.31;5061882;28;19920;-79
2021/12/02 12:38:39;;;;;;;;;;;;;;;10.55;50.22;99843.63;5070624;28;19924;-79
2021/12/02 12:41:14;;;;;;;;;;;;;;;10.53;50.10;99845.63;5000750;28;20371;-80
2021/12/02 12:43:51;;;;;;;;;;;;;;;10.51;49.94;99839.44;5013316;28;19974;-80
2021/12/02 12:46:23;;;;;;;;;;;;;;;10.51;50.01;99836.72;5050916;28;19931;-80
2021/12/02 12:48:51;;;;;;;;;;;;;;;10.50;49.94;99840.44;5052198;28;20001;-81
2021/12/02 12:51:23;;;;;;;;;;;;;;;10.50;49.91;99837.72;5062215;28;19920;-80
2021/12/02 12:53:50;;;;;;;;;;;;;;;10.51;49.97;99846.72;5044871;28;19921;-82
2021/12/02 12:56:18;;;;;;;;;;;;;;;10.50;49.85;99845.84;5065270;28;19920;-80
2021/12/02 12:58:53;;;;;;;;;;;;;;;10.49;49.98;99849.56;5046400;28;20257;-79
2021/12/02 13:01:21;;;;;;;;;;;;;;;10.50;50.11;99850.41;5069958;28;19920;-80
2021/12/02 13:04:03;;;;;;;;;;;;;;;10.48;49.86;99845.13;5044035;28;20423;-80
2021/12/02 13:06:33;;;;;;;;;;;;;;;10.47;49.76;99845.22;5067356;28;20340;-80
2021/12/02 13:09:02;;;;;;;;;;;;;;;10.47;49.70;99858.81;5039165;28;19928;-80
2021/12/02 13:11:31;;;;;;;;;;;;;;;10.46;49.73;99859.81;5052228;28;19921;-80
2021/12/02 13:13:59;;;;;;;;;;;;;;;10.44;49.64;99861.78;5041712;28;19929;-80
2021/12/02 13:16:25;;;;;;;;;;;;;;;10.43;49.60;99854.63;5044976;28;19975;-80
2021/12/02 13:18:53;;;;;;;;;;;;;;;10.42;49.68;99861.03;5053089;28;20339;-80
2021/12/02 13:21:20;;;;;;;;;;;;;;;10.42;49.77;99863.75;5037278;28;19924;-80
2021/12/02 13:23:53;;;;;;;;;;;;;;;10.39;49.66;99862.16;5055563;28;20023;-80